sensor_id;sensor_type;location;lat;lon;timestamp;P1;durP1;ratioP1;P2;durP2;ratioP2
56999;SDS011;42891;50.006;21.964;2023-08-01T00:03:32;9.93;;;7.00;;
56999;SDS011;42891;50.006;21.964;2023-08-01T00:07:33;11.68;;;7.35;;
56999;SDS011;42891;50.006;21.964;2023-08-01T00:11:33;11.05;;;7.43;;
56999;SDS011;42891;50.006;21.964;2023-08-01T00:15:33;10.52;;;6.82;;
56999;SDS011;42891;50.006;21.964;2023-08-01T00:19:34;15.15;;;7.07;;
56999;SDS011;42891;50.006;21.964;2023-08-01T00:23:34;9.88;;;6.88;;
56999;SDS011;42891;50.006;21.964;2023-08-01T00:27:34;9.02;;;7.13;;
56999;SDS011;42891;50.006;21.964;2023-08-01T00:31:35;12.10;;;7.18;;
56999;SDS011;42891;50.006;21.964;2023-08-01T00:35:35;11.80;;;7.28;;
56999;SDS011;42891;50.006;21.964;2023-08-01T00:39:35;12.07;;;7.07;;
56999;SDS011;42891;50.006;21.964;2023-08-01T00:43:36;17.83;;;6.55;;
56999;SDS011;42891;50.006;21.964;2023-08-01T00:47:37;15.38;;;7.10;;
56999;SDS011;42891;50.006;21.964;2023-08-01T00:51:37;9.32;;;6.75;;
56999;SDS011;42891;50.006;21.964;2023-08-01T00:55:37;13.45;;;6.93;;
56999;SDS011;42891;50.006;21.964;2023-08-01T00:59:38;9.25;;;6.53;;
56999;SDS011;42891;50.006;21.964;2023-08-01T01:03:38;9.05;;;6.47;;
56999;SDS011;42891;50.006;21.964;2023-08-01T01:07:39;8.68;;;6.40;;
56999;SDS011;42891;50.006;21.964;2023-08-01T01:11:40;9.27;;;6.13;;
56999;SDS011;42891;50.006;21.964;2023-08-01T01:15:40;9.32;;;6.32;;
56999;SDS011;42891;50.006;21.964;2023-08-01T01:19:40;9.33;;;6.10;;
56999;SDS011;42891;50.006;21.964;2023-08-01T01:23:41;9.70;;;6.45;;
56999;SDS011;42891;50.006;21.964;2023-08-01T01:27:43;11.18;;;6.53;;
56999;SDS011;42891;50.006;21.964;2023-08-01T01:31:45;9.00;;;6.10;;
56999;SDS011;42891;50.006;21.964;2023-08-01T01:35:46;8.40;;;5.78;;
56999;SDS011;42891;50.006;21.964;2023-08-01T01:39:47;10.05;;;6.80;;
56999;SDS011;42891;50.006;21.964;2023-08-01T01:43:47;9.03;;;6.70;;
56999;SDS011;42891;50.006;21.964;2023-08-01T01:47:48;8.85;;;6.57;;
56999;SDS011;42891;50.006;21.964;2023-08-01T01:51:48;11.40;;;6.45;;
56999;SDS011;42891;50.006;21.964;2023-08-01T01:55:49;10.25;;;6.47;;
56999;SDS011;42891;50.006;21.964;2023-08-01T01:59:49;10.77;;;6.50;;
56999;SDS011;42891;50.006;21.964;2023-08-01T02:03:49;11.15;;;6.78;;
56999;SDS011;42891;50.006;21.964;2023-08-01T02:07:50;8.35;;;6.22;;
56999;SDS011;42891;50.006;21.964;2023-08-01T02:11:50;9.73;;;6.43;;
56999;SDS011;42891;50.006;21.964;2023-08-01T02:15:50;9.33;;;6.73;;
56999;SDS011;42891;50.006;21.964;2023-08-01T02:19:51;8.15;;;5.68;;
56999;SDS011;42891;50.006;21.964;2023-08-01T02:23:51;12.77;;;6.55;;
56999;SDS011;42891;50.006;21.964;2023-08-01T02:27:51;8.30;;;6.38;;
56999;SDS011;42891;50.006;21.964;2023-08-01T02:31:52;11.57;;;5.90;;
56999;SDS011;42891;50.006;21.964;2023-08-01T02:35:52;9.18;;;5.65;;
56999;SDS011;42891;50.006;21.964;2023-08-01T02:39:52;9.18;;;6.05;;
56999;SDS011;42891;50.006;21.964;2023-08-01T02:43:53;6.72;;;5.20;;
56999;SDS011;42891;50.006;21.964;2023-08-01T02:47:53;7.32;;;5.30;;
56999;SDS011;42891;50.006;21.964;2023-08-01T02:51:53;8.60;;;5.80;;
56999;SDS011;42891;50.006;21.964;2023-08-01T02:55:54;7.10;;;5.57;;
56999;SDS011;42891;50.006;21.964;2023-08-01T02:59:54;9.95;;;5.88;;
56999;SDS011;42891;50.006;21.964;2023-08-01T03:03:54;7.13;;;5.13;;
56999;SDS011;42891;50.006;21.964;2023-08-01T03:07:54;8.40;;;5.03;;
56999;SDS011;42891;50.006;21.964;2023-08-01T03:11:55;6.45;;;5.25;;
56999;SDS011;42891;50.006;21.964;2023-08-01T03:15:55;6.78;;;5.22;;
56999;SDS011;42891;50.006;21.964;2023-08-01T03:19:56;7.13;;;5.28;;
56999;SDS011;42891;50.006;21.964;2023-08-01T03:23:56;10.75;;;5.57;;
56999;SDS011;42891;50.006;21.964;2023-08-01T03:27:57;7.32;;;5.32;;
56999;SDS011;42891;50.006;21.964;2023-08-01T03:31:57;7.80;;;5.53;;
56999;SDS011;42891;50.006;21.964;2023-08-01T03:35:58;7.32;;;5.45;;
56999;SDS011;42891;50.006;21.964;2023-08-01T03:39:58;9.25;;;5.93;;
56999;SDS011;42891;50.006;21.964;2023-08-01T03:43:59;9.25;;;6.03;;
56999;SDS011;42891;50.006;21.964;2023-08-01T03:47:59;7.65;;;5.38;;
56999;SDS011;42891;50.006;21.964;2023-08-01T03:51:59;7.20;;;5.22;;
56999;SDS011;42891;50.006;21.964;2023-08-01T03:56:00;7.32;;;5.80;;
56999;SDS011;42891;50.006;21.964;2023-08-01T04:00:00;6.90;;;5.60;;
56999;SDS011;42891;50.006;21.964;2023-08-01T04:04:00;8.68;;;5.47;;
56999;SDS011;42891;50.006;21.964;2023-08-01T04:08:01;5.78;;;4.93;;
56999;SDS011;42891;50.006;21.964;2023-08-01T04:12:01;7.30;;;5.15;;
56999;SDS011;42891;50.006;21.964;2023-08-01T04:16:02;8.30;;;5.03;;
56999;SDS011;42891;50.006;21.964;2023-08-01T04:20:02;6.97;;;5.22;;
56999;SDS011;42891;50.006;21.964;2023-08-01T04:24:03;8.32;;;5.40;;
56999;SDS011;42891;50.006;21.964;2023-08-01T04:28:03;7.60;;;5.63;;
56999;SDS011;42891;50.006;21.964;2023-08-01T04:32:04;10.35;;;5.63;;
56999;SDS011;42891;50.006;21.964;2023-08-01T04:36:04;8.10;;;5.38;;
56999;SDS011;42891;50.006;21.964;2023-08-01T04:40:05;5.72;;;5.13;;
56999;SDS011;42891;50.006;21.964;2023-08-01T04:44:06;9.52;;;5.35;;
56999;SDS011;42891;50.006;21.964;2023-08-01T04:48:06;6.45;;;4.78;;
56999;SDS011;42891;50.006;21.964;2023-08-01T04:52:07;8.00;;;5.90;;
56999;SDS011;42891;50.006;21.964;2023-08-01T04:56:07;10.60;;;5.15;;
56999;SDS011;42891;50.006;21.964;2023-08-01T05:00:08;6.38;;;5.25;;
56999;SDS011;42891;50.006;21.964;2023-08-01T05:04:09;7.15;;;5.13;;
56999;SDS011;42891;50.006;21.964;2023-08-01T05:08:10;6.00;;;5.22;;
56999;SDS011;42891;50.006;21.964;2023-08-01T05:12:10;5.80;;;4.55;;
56999;SDS011;42891;50.006;21.964;2023-08-01T05:16:10;8.77;;;5.22;;
56999;SDS011;42891;50.006;21.964;2023-08-01T05:20:11;8.32;;;5.10;;
56999;SDS011;42891;50.006;21.964;2023-08-01T05:24:11;8.88;;;4.60;;
56999;SDS011;42891;50.006;21.964;2023-08-01T05:28:11;6.07;;;5.07;;
56999;SDS011;42891;50.006;21.964;2023-08-01T05:32:12;7.55;;;5.03;;
56999;SDS011;42891;50.006;21.964;2023-08-01T05:36:12;6.90;;;4.63;;
56999;SDS011;42891;50.006;21.964;2023-08-01T05:40:12;8.27;;;4.68;;
56999;SDS011;42891;50.006;21.964;2023-08-01T05:44:13;7.45;;;4.93;;
56999;SDS011;42891;50.006;21.964;2023-08-01T05:48:13;6.78;;;4.57;;
56999;SDS011;42891;50.006;21.964;2023-08-01T05:52:14;6.45;;;5.20;;
56999;SDS011;42891;50.006;21.964;2023-08-01T05:56:14;7.72;;;5.15;;
56999;SDS011;42891;50.006;21.964;2023-08-01T06:00:14;6.88;;;4.90;;
56999;SDS011;42891;50.006;21.964;2023-08-01T06:04:15;7.50;;;5.10;;
56999;SDS011;42891;50.006;21.964;2023-08-01T06:08:15;5.93;;;4.85;;
56999;SDS011;42891;50.006;21.964;2023-08-01T06:12:16;7.40;;;4.40;;
56999;SDS011;42891;50.006;21.964;2023-08-01T06:16:17;6.22;;;4.40;;
56999;SDS011;42891;50.006;21.964;2023-08-01T06:20:18;5.65;;;3.90;;
56999;SDS011;42891;50.006;21.964;2023-08-01T06:24:18;5.28;;;3.80;;
56999;SDS011;42891;50.006;21.964;2023-08-01T06:28:19;4.20;;;3.80;;
56999;SDS011;42891;50.006;21.964;2023-08-01T06:32:19;4.28;;;3.60;;
56999;SDS011;42891;50.006;21.964;2023-08-01T06:36:19;3.50;;;3.20;;
56999;SDS011;42891;50.006;21.964;2023-08-01T06:40:20;4.20;;;3.60;;
56999;SDS011;42891;50.006;21.964;2023-08-01T06:44:20;5.20;;;3.30;;
56999;SDS011;42891;50.006;21.964;2023-08-01T06:48:21;5.78;;;3.85;;
56999;SDS011;42891;50.006;21.964;2023-08-01T06:52:21;4.07;;;3.42;;
56999;SDS011;42891;50.006;21.964;2023-08-01T06:56:21;4.78;;;3.15;;
56999;SDS011;42891;50.006;21.964;2023-08-01T07:00:22;4.28;;;3.13;;
56999;SDS011;42891;50.006;21.964;2023-08-01T07:04:22;8.18;;;3.70;;
56999;SDS011;42891;50.006;21.964;2023-08-01T07:08:23;4.38;;;3.42;;
56999;SDS011;42891;50.006;21.964;2023-08-01T07:12:24;3.63;;;2.93;;
56999;SDS011;42891;50.006;21.964;2023-08-01T07:16:24;4.45;;;3.45;;
56999;SDS011;42891;50.006;21.964;2023-08-01T07:20:24;4.35;;;3.30;;
56999;SDS011;42891;50.006;21.964;2023-08-01T07:24:25;6.68;;;3.40;;
56999;SDS011;42891;50.006;21.964;2023-08-01T07:28:25;5.05;;;3.22;;
56999;SDS011;42891;50.006;21.964;2023-08-01T07:32:26;6.00;;;3.38;;
56999;SDS011;42891;50.006;21.964;2023-08-01T07:36:26;5.00;;;3.23;;
56999;SDS011;42891;50.006;21.964;2023-08-01T07:40:26;4.68;;;3.22;;
56999;SDS011;42891;50.006;21.964;2023-08-01T07:44:27;5.90;;;3.13;;
56999;SDS011;42891;50.006;21.964;2023-08-01T07:48:27;4.45;;;3.05;;
56999;SDS011;42891;50.006;21.964;2023-08-01T07:52:28;4.20;;;3.15;;
56999;SDS011;42891;50.006;21.964;2023-08-01T07:56:28;6.95;;;3.35;;
56999;SDS011;42891;50.006;21.964;2023-08-01T08:00:28;4.72;;;2.75;;
56999;SDS011;42891;50.006;21.964;2023-08-01T08:04:29;4.83;;;2.87;;
56999;SDS011;42891;50.006;21.964;2023-08-01T08:08:29;3.13;;;2.53;;
56999;SDS011;42891;50.006;21.964;2023-08-01T08:12:30;5.35;;;2.88;;
56999;SDS011;42891;50.006;21.964;2023-08-01T08:16:30;8.18;;;3.25;;
56999;SDS011;42891;50.006;21.964;2023-08-01T08:20:31;10.27;;;2.92;;
56999;SDS011;42891;50.006;21.964;2023-08-01T08:24:40;3.58;;;2.53;;
56999;SDS011;42891;50.006;21.964;2023-08-01T08:28:41;7.40;;;2.50;;
56999;SDS011;42891;50.006;21.964;2023-08-01T08:32:42;3.47;;;2.15;;
56999;SDS011;42891;50.006;21.964;2023-08-01T08:36:42;3.63;;;2.47;;
56999;SDS011;42891;50.006;21.964;2023-08-01T08:40:43;6.03;;;2.42;;
56999;SDS011;42891;50.006;21.964;2023-08-01T08:45:07;2.92;;;2.10;;
56999;SDS011;42891;50.006;21.964;2023-08-01T08:49:08;5.18;;;2.17;;
56999;SDS011;42891;50.006;21.964;2023-08-01T08:53:09;6.00;;;1.95;;
56999;SDS011;42891;50.006;21.964;2023-08-01T08:57:12;5.50;;;2.22;;
56999;SDS011;42891;50.006;21.964;2023-08-01T09:01:13;7.43;;;2.25;;
56999;SDS011;42891;50.006;21.964;2023-08-01T09:05:14;4.28;;;1.80;;
56999;SDS011;42891;50.006;21.964;2023-08-01T09:09:14;5.88;;;2.13;;
56999;SDS011;42891;50.006;21.964;2023-08-01T09:13:15;5.88;;;2.20;;
56999;SDS011;42891;50.006;21.964;2023-08-01T09:17:16;3.65;;;2.40;;
56999;SDS011;42891;50.006;21.964;2023-08-01T09:21:19;3.42;;;2.10;;
56999;SDS011;42891;50.006;21.964;2023-08-01T09:25:19;4.15;;;2.20;;
56999;SDS011;42891;50.006;21.964;2023-08-01T09:29:31;6.75;;;2.42;;
56999;SDS011;42891;50.006;21.964;2023-08-01T09:33:37;5.20;;;2.40;;
56999;SDS011;42891;50.006;21.964;2023-08-01T09:37:43;2.80;;;2.05;;
56999;SDS011;42891;50.006;21.964;2023-08-01T09:41:43;3.40;;;1.95;;
56999;SDS011;42891;50.006;21.964;2023-08-01T09:45:53;2.90;;;1.88;;
56999;SDS011;42891;50.006;21.964;2023-08-01T09:49:53;3.42;;;2.30;;
56999;SDS011;42891;50.006;21.964;2023-08-01T09:53:54;5.75;;;1.80;;
56999;SDS011;42891;50.006;21.964;2023-08-01T09:57:57;3.58;;;2.38;;
56999;SDS011;42891;50.006;21.964;2023-08-01T10:01:58;3.13;;;2.22;;
56999;SDS011;42891;50.006;21.964;2023-08-01T10:06:00;5.20;;;2.20;;
56999;SDS011;42891;50.006;21.964;2023-08-01T10:10:01;3.20;;;2.25;;
56999;SDS011;42891;50.006;21.964;2023-08-01T10:14:02;3.20;;;2.30;;
56999;SDS011;42891;50.006;21.964;2023-08-01T10:18:03;4.82;;;2.40;;
56999;SDS011;42891;50.006;21.964;2023-08-01T10:22:04;5.13;;;2.22;;
56999;SDS011;42891;50.006;21.964;2023-08-01T10:26:07;5.82;;;2.33;;
56999;SDS011;42891;50.006;21.964;2023-08-01T10:30:09;5.40;;;2.30;;
56999;SDS011;42891;50.006;21.964;2023-08-01T10:34:13;6.47;;;2.40;;
56999;SDS011;42891;50.006;21.964;2023-08-01T10:38:14;4.55;;;2.53;;
56999;SDS011;42891;50.006;21.964;2023-08-01T10:42:14;2.97;;;2.65;;
56999;SDS011;42891;50.006;21.964;2023-08-01T10:46:14;5.03;;;2.55;;
56999;SDS011;42891;50.006;21.964;2023-08-01T10:50:15;3.95;;;3.00;;
56999;SDS011;42891;50.006;21.964;2023-08-01T10:54:20;7.47;;;2.90;;
56999;SDS011;42891;50.006;21.964;2023-08-01T10:58:26;4.50;;;2.47;;
56999;SDS011;42891;50.006;21.964;2023-08-01T11:02:27;3.47;;;2.58;;
56999;SDS011;42891;50.006;21.964;2023-08-01T11:06:29;3.38;;;2.42;;
56999;SDS011;42891;50.006;21.964;2023-08-01T11:10:29;4.47;;;2.60;;
56999;SDS011;42891;50.006;21.964;2023-08-01T11:14:31;7.38;;;2.60;;
56999;SDS011;42891;50.006;21.964;2023-08-01T11:18:44;5.10;;;3.10;;
56999;SDS011;42891;50.006;21.964;2023-08-01T11:22:52;5.55;;;2.80;;
56999;SDS011;42891;50.006;21.964;2023-08-01T11:26:57;6.28;;;3.08;;
56999;SDS011;42891;50.006;21.964;2023-08-01T11:30:58;5.13;;;2.80;;
56999;SDS011;42891;50.006;21.964;2023-08-01T11:34:58;4.47;;;2.70;;
56999;SDS011;42891;50.006;21.964;2023-08-01T11:38:59;5.27;;;2.53;;
56999;SDS011;42891;50.006;21.964;2023-08-01T11:43:00;4.03;;;2.30;;
56999;SDS011;42891;50.006;21.964;2023-08-01T11:47:01;5.20;;;2.30;;
56999;SDS011;42891;50.006;21.964;2023-08-01T11:51:03;5.25;;;2.72;;
56999;SDS011;42891;50.006;21.964;2023-08-01T11:55:04;3.35;;;2.25;;
56999;SDS011;42891;50.006;21.964;2023-08-01T11:59:11;3.33;;;2.63;;
56999;SDS011;42891;50.006;21.964;2023-08-01T12:03:13;8.45;;;2.35;;
56999;SDS011;42891;50.006;21.964;2023-08-01T12:07:14;3.40;;;2.60;;
56999;SDS011;42891;50.006;21.964;2023-08-01T12:15:26;3.22;;;2.05;;
56999;SDS011;42891;50.006;21.964;2023-08-01T12:19:26;6.90;;;1.92;;
56999;SDS011;42891;50.006;21.964;2023-08-01T12:23:26;4.75;;;2.50;;
56999;SDS011;42891;50.006;21.964;2023-08-01T12:27:27;8.37;;;2.40;;
56999;SDS011;42891;50.006;21.964;2023-08-01T12:31:27;3.88;;;2.17;;
56999;SDS011;42891;50.006;21.964;2023-08-01T12:35:28;5.07;;;2.42;;
56999;SDS011;42891;50.006;21.964;2023-08-01T12:39:28;5.73;;;2.40;;
56999;SDS011;42891;50.006;21.964;2023-08-01T12:43:29;5.07;;;2.37;;
56999;SDS011;42891;50.006;21.964;2023-08-01T12:47:29;8.17;;;2.50;;
56999;SDS011;42891;50.006;21.964;2023-08-01T12:51:30;6.28;;;2.80;;
56999;SDS011;42891;50.006;21.964;2023-08-01T12:55:30;3.63;;;2.40;;
56999;SDS011;42891;50.006;21.964;2023-08-01T12:59:30;2.43;;;2.20;;
56999;SDS011;42891;50.006;21.964;2023-08-01T13:03:31;15.02;;;2.90;;
56999;SDS011;42891;50.006;21.964;2023-08-01T13:07:31;4.60;;;2.58;;
56999;SDS011;42891;50.006;21.964;2023-08-01T13:11:32;3.30;;;2.30;;
56999;SDS011;42891;50.006;21.964;2023-08-01T13:15:32;3.67;;;2.30;;
56999;SDS011;42891;50.006;21.964;2023-08-01T13:19:33;4.28;;;2.60;;
56999;SDS011;42891;50.006;21.964;2023-08-01T13:23:33;4.35;;;2.28;;
56999;SDS011;42891;50.006;21.964;2023-08-01T13:27:34;3.40;;;2.40;;
56999;SDS011;42891;50.006;21.964;2023-08-01T13:31:35;3.08;;;2.53;;
56999;SDS011;42891;50.006;21.964;2023-08-01T13:35:35;3.42;;;2.85;;
56999;SDS011;42891;50.006;21.964;2023-08-01T13:39:36;4.90;;;2.85;;
56999;SDS011;42891;50.006;21.964;2023-08-01T13:43:36;3.63;;;2.60;;
56999;SDS011;42891;50.006;21.964;2023-08-01T13:47:37;4.13;;;2.73;;
56999;SDS011;42891;50.006;21.964;2023-08-01T13:51:37;3.40;;;2.50;;
56999;SDS011;42891;50.006;21.964;2023-08-01T13:55:37;3.17;;;2.20;;
56999;SDS011;42891;50.006;21.964;2023-08-01T13:59:38;3.28;;;2.20;;
56999;SDS011;42891;50.006;21.964;2023-08-01T14:03:39;3.87;;;2.47;;
56999;SDS011;42891;50.006;21.964;2023-08-01T14:07:39;4.88;;;2.40;;
56999;SDS011;42891;50.006;21.964;2023-08-01T14:11:40;4.22;;;2.70;;
56999;SDS011;42891;50.006;21.964;2023-08-01T14:15:40;4.20;;;2.70;;
56999;SDS011;42891;50.006;21.964;2023-08-01T14:19:40;5.63;;;2.40;;
56999;SDS011;42891;50.006;21.964;2023-08-01T14:23:41;5.78;;;2.75;;
56999;SDS011;42891;50.006;21.964;2023-08-01T14:27:42;4.05;;;2.60;;
56999;SDS011;42891;50.006;21.964;2023-08-01T14:31:42;6.63;;;2.60;;
56999;SDS011;42891;50.006;21.964;2023-08-01T14:35:43;4.47;;;2.63;;
56999;SDS011;42891;50.006;21.964;2023-08-01T14:39:43;3.85;;;2.63;;
56999;SDS011;42891;50.006;21.964;2023-08-01T14:43:44;3.83;;;2.50;;
56999;SDS011;42891;50.006;21.964;2023-08-01T14:47:45;5.10;;;2.47;;
56999;SDS011;42891;50.006;21.964;2023-08-01T14:51:45;9.48;;;2.80;;
56999;SDS011;42891;50.006;21.964;2023-08-01T14:55:45;3.03;;;2.33;;
56999;SDS011;42891;50.006;21.964;2023-08-01T14:59:46;4.25;;;2.65;;
56999;SDS011;42891;50.006;21.964;2023-08-01T15:03:46;3.55;;;2.70;;
56999;SDS011;42891;50.006;21.964;2023-08-01T15:07:47;4.07;;;2.55;;
56999;SDS011;42891;50.006;21.964;2023-08-01T15:11:47;6.47;;;2.50;;
56999;SDS011;42891;50.006;21.964;2023-08-01T15:15:47;4.78;;;2.15;;
56999;SDS011;42891;50.006;21.964;2023-08-01T15:19:48;4.47;;;2.57;;
56999;SDS011;42891;50.006;21.964;2023-08-01T15:23:49;2.70;;;2.17;;
56999;SDS011;42891;50.006;21.964;2023-08-01T15:27:49;4.75;;;2.50;;
56999;SDS011;42891;50.006;21.964;2023-08-01T15:31:49;4.33;;;2.30;;
56999;SDS011;42891;50.006;21.964;2023-08-01T15:35:50;5.20;;;2.53;;
56999;SDS011;42891;50.006;21.964;2023-08-01T15:39:50;3.25;;;2.10;;
56999;SDS011;42891;50.006;21.964;2023-08-01T15:43:50;7.88;;;2.42;;
56999;SDS011;42891;50.006;21.964;2023-08-01T15:47:51;4.00;;;2.35;;
56999;SDS011;42891;50.006;21.964;2023-08-01T15:51:51;8.93;;;3.30;;
56999;SDS011;42891;50.006;21.964;2023-08-01T15:56:02;10.05;;;4.13;;
56999;SDS011;42891;50.006;21.964;2023-08-01T16:00:04;4.40;;;3.40;;
56999;SDS011;42891;50.006;21.964;2023-08-01T16:04:04;4.95;;;3.28;;
56999;SDS011;42891;50.006;21.964;2023-08-01T16:08:05;5.50;;;3.22;;
56999;SDS011;42891;50.006;21.964;2023-08-01T16:12:05;7.80;;;2.90;;
56999;SDS011;42891;50.006;21.964;2023-08-01T16:16:06;5.97;;;3.10;;
56999;SDS011;42891;50.006;21.964;2023-08-01T16:20:07;4.22;;;3.03;;
56999;SDS011;42891;50.006;21.964;2023-08-01T16:24:08;6.22;;;2.80;;
56999;SDS011;42891;50.006;21.964;2023-08-01T16:28:08;4.07;;;2.72;;
56999;SDS011;42891;50.006;21.964;2023-08-01T16:32:09;4.95;;;2.97;;
56999;SDS011;42891;50.006;21.964;2023-08-01T16:36:09;9.23;;;3.00;;
56999;SDS011;42891;50.006;21.964;2023-08-01T16:40:09;3.20;;;2.60;;
56999;SDS011;42891;50.006;21.964;2023-08-01T16:44:10;5.70;;;2.70;;
56999;SDS011;42891;50.006;21.964;2023-08-01T16:48:10;4.07;;;2.50;;
56999;SDS011;42891;50.006;21.964;2023-08-01T16:52:11;3.33;;;2.38;;
56999;SDS011;42891;50.006;21.964;2023-08-01T16:56:11;2.92;;;2.55;;
56999;SDS011;42891;50.006;21.964;2023-08-01T17:00:11;3.05;;;2.70;;
56999;SDS011;42891;50.006;21.964;2023-08-01T17:04:13;3.85;;;2.47;;
56999;SDS011;42891;50.006;21.964;2023-08-01T17:08:14;4.18;;;2.05;;
56999;SDS011;42891;50.006;21.964;2023-08-01T17:12:14;2.88;;;2.30;;
56999;SDS011;42891;50.006;21.964;2023-08-01T17:16:15;3.47;;;2.67;;
56999;SDS011;42891;50.006;21.964;2023-08-01T17:20:15;3.38;;;2.50;;
56999;SDS011;42891;50.006;21.964;2023-08-01T17:24:15;2.97;;;2.30;;
56999;SDS011;42891;50.006;21.964;2023-08-01T17:28:16;4.25;;;2.50;;
56999;SDS011;42891;50.006;21.964;2023-08-01T17:32:16;4.10;;;2.50;;
56999;SDS011;42891;50.006;21.964;2023-08-01T17:36:17;3.75;;;2.20;;
56999;SDS011;42891;50.006;21.964;2023-08-01T17:40:18;3.35;;;2.33;;
56999;SDS011;42891;50.006;21.964;2023-08-01T17:44:18;2.75;;;2.20;;
56999;SDS011;42891;50.006;21.964;2023-08-01T17:48:18;3.47;;;2.30;;
56999;SDS011;42891;50.006;21.964;2023-08-01T17:52:19;4.00;;;2.30;;
56999;SDS011;42891;50.006;21.964;2023-08-01T17:56:19;5.07;;;2.53;;
56999;SDS011;42891;50.006;21.964;2023-08-01T18:00:20;3.10;;;2.45;;
56999;SDS011;42891;50.006;21.964;2023-08-01T18:04:21;6.07;;;2.75;;
56999;SDS011;42891;50.006;21.964;2023-08-01T18:08:22;4.68;;;2.90;;
56999;SDS011;42891;50.006;21.964;2023-08-01T18:12:22;3.88;;;2.58;;
56999;SDS011;42891;50.006;21.964;2023-08-01T18:16:24;3.33;;;2.72;;
56999;SDS011;42891;50.006;21.964;2023-08-01T18:20:25;4.25;;;2.50;;
56999;SDS011;42891;50.006;21.964;2023-08-01T18:24:25;4.15;;;2.80;;
56999;SDS011;42891;50.006;21.964;2023-08-01T18:28:25;3.37;;;2.47;;
56999;SDS011;42891;50.006;21.964;2023-08-01T18:32:26;4.70;;;2.93;;
56999;SDS011;42891;50.006;21.964;2023-08-01T18:36:26;3.50;;;2.83;;
56999;SDS011;42891;50.006;21.964;2023-08-01T18:40:28;6.00;;;2.40;;
56999;SDS011;42891;50.006;21.964;2023-08-01T18:44:28;4.10;;;2.83;;
56999;SDS011;42891;50.006;21.964;2023-08-01T18:48:28;3.20;;;2.33;;
56999;SDS011;42891;50.006;21.964;2023-08-01T18:52:29;5.28;;;2.60;;
56999;SDS011;42891;50.006;21.964;2023-08-01T18:56:32;3.40;;;2.25;;
56999;SDS011;42891;50.006;21.964;2023-08-01T19:00:32;4.57;;;2.40;;
56999;SDS011;42891;50.006;21.964;2023-08-01T19:04:33;4.15;;;2.78;;
56999;SDS011;42891;50.006;21.964;2023-08-01T19:08:33;6.18;;;3.55;;
56999;SDS011;42891;50.006;21.964;2023-08-01T19:12:34;7.78;;;3.80;;
56999;SDS011;42891;50.006;21.964;2023-08-01T19:16:34;7.68;;;4.35;;
56999;SDS011;42891;50.006;21.964;2023-08-01T19:20:36;7.82;;;4.57;;
56999;SDS011;42891;50.006;21.964;2023-08-01T19:24:37;9.02;;;4.53;;
56999;SDS011;42891;50.006;21.964;2023-08-01T19:28:38;9.13;;;4.90;;
56999;SDS011;42891;50.006;21.964;2023-08-01T19:32:39;6.72;;;4.00;;
56999;SDS011;42891;50.006;21.964;2023-08-01T19:36:39;5.57;;;3.42;;
56999;SDS011;42891;50.006;21.964;2023-08-01T19:40:40;4.97;;;3.40;;
56999;SDS011;42891;50.006;21.964;2023-08-01T19:44:44;5.03;;;2.60;;
56999;SDS011;42891;50.006;21.964;2023-08-01T19:48:44;4.88;;;2.85;;
56999;SDS011;42891;50.006;21.964;2023-08-01T19:52:46;4.65;;;2.85;;
56999;SDS011;42891;50.006;21.964;2023-08-01T19:56:48;3.42;;;2.42;;
56999;SDS011;42891;50.006;21.964;2023-08-01T20:00:49;5.15;;;2.65;;
56999;SDS011;42891;50.006;21.964;2023-08-01T20:04:49;3.65;;;2.75;;
56999;SDS011;42891;50.006;21.964;2023-08-01T20:08:50;4.20;;;2.90;;
56999;SDS011;42891;50.006;21.964;2023-08-01T20:12:50;3.80;;;2.70;;
56999;SDS011;42891;50.006;21.964;2023-08-01T20:16:51;3.23;;;2.70;;
56999;SDS011;42891;50.006;21.964;2023-08-01T20:20:51;5.50;;;2.97;;
56999;SDS011;42891;50.006;21.964;2023-08-01T20:24:52;4.90;;;3.25;;
56999;SDS011;42891;50.006;21.964;2023-08-01T20:28:53;4.10;;;3.03;;
56999;SDS011;42891;50.006;21.964;2023-08-01T20:32:53;3.47;;;2.90;;
56999;SDS011;42891;50.006;21.964;2023-08-01T20:36:54;5.07;;;3.23;;
56999;SDS011;42891;50.006;21.964;2023-08-01T20:40:55;101.50;;;56.65;;
56999;SDS011;42891;50.006;21.964;2023-08-01T20:44:55;127.18;;;70.97;;
56999;SDS011;42891;50.006;21.964;2023-08-01T20:48:56;182.02;;;98.65;;
56999;SDS011;42891;50.006;21.964;2023-08-01T20:52:56;91.22;;;52.33;;
56999;SDS011;42891;50.006;21.964;2023-08-01T20:56:57;37.25;;;21.63;;
56999;SDS011;42891;50.006;21.964;2023-08-01T21:00:58;18.50;;;11.25;;
56999;SDS011;42891;50.006;21.964;2023-08-01T21:04:59;15.88;;;10.73;;
56999;SDS011;42891;50.006;21.964;2023-08-01T21:08:59;17.98;;;10.57;;
56999;SDS011;42891;50.006;21.964;2023-08-01T21:13:00;29.85;;;16.75;;
56999;SDS011;42891;50.006;21.964;2023-08-01T21:17:00;19.15;;;12.00;;
56999;SDS011;42891;50.006;21.964;2023-08-01T21:21:01;11.05;;;7.30;;
56999;SDS011;42891;50.006;21.964;2023-08-01T21:25:02;13.30;;;8.10;;
56999;SDS011;42891;50.006;21.964;2023-08-01T21:29:02;38.05;;;19.52;;
56999;SDS011;42891;50.006;21.964;2023-08-01T21:33:03;76.65;;;41.22;;
56999;SDS011;42891;50.006;21.964;2023-08-01T21:37:03;72.68;;;39.78;;
56999;SDS011;42891;50.006;21.964;2023-08-01T21:41:04;35.42;;;21.15;;
56999;SDS011;42891;50.006;21.964;2023-08-01T21:45:04;18.35;;;10.45;;
56999;SDS011;42891;50.006;21.964;2023-08-01T21:49:05;10.30;;;7.05;;
56999;SDS011;42891;50.006;21.964;2023-08-01T21:53:05;23.73;;;15.03;;
56999;SDS011;42891;50.006;21.964;2023-08-01T21:57:06;17.93;;;11.40;;
56999;SDS011;42891;50.006;21.964;2023-08-01T22:01:06;25.40;;;12.70;;
56999;SDS011;42891;50.006;21.964;2023-08-01T22:05:07;18.38;;;11.70;;
56999;SDS011;42891;50.006;21.964;2023-08-01T22:09:08;12.85;;;8.45;;
56999;SDS011;42891;50.006;21.964;2023-08-01T22:13:08;7.45;;;5.03;;
56999;SDS011;42891;50.006;21.964;2023-08-01T22:17:09;7.95;;;5.43;;
56999;SDS011;42891;50.006;21.964;2023-08-01T22:21:09;9.00;;;4.97;;
56999;SDS011;42891;50.006;21.964;2023-08-01T22:25:09;7.67;;;4.43;;
56999;SDS011;42891;50.006;21.964;2023-08-01T22:29:10;4.75;;;3.42;;
56999;SDS011;42891;50.006;21.964;2023-08-01T22:33:11;3.63;;;2.95;;
56999;SDS011;42891;50.006;21.964;2023-08-01T22:37:11;3.90;;;2.85;;
56999;SDS011;42891;50.006;21.964;2023-08-01T22:41:15;3.07;;;2.40;;
56999;SDS011;42891;50.006;21.964;2023-08-01T22:45:17;4.88;;;2.78;;
56999;SDS011;42891;50.006;21.964;2023-08-01T22:49:17;3.20;;;2.65;;
56999;SDS011;42891;50.006;21.964;2023-08-01T22:53:17;3.33;;;2.67;;
56999;SDS011;42891;50.006;21.964;2023-08-01T22:57:18;4.53;;;2.80;;
56999;SDS011;42891;50.006;21.964;2023-08-01T23:01:18;3.42;;;2.67;;
56999;SDS011;42891;50.006;21.964;2023-08-01T23:05:19;4.50;;;3.05;;
56999;SDS011;42891;50.006;21.964;2023-08-01T23:09:20;4.10;;;2.97;;
56999;SDS011;42891;50.006;21.964;2023-08-01T23:13:20;8.90;;;3.20;;
56999;SDS011;42891;50.006;21.964;2023-08-01T23:17:21;4.33;;;3.00;;
56999;SDS011;42891;50.006;21.964;2023-08-01T23:21:21;2.60;;;2.13;;
56999;SDS011;42891;50.006;21.964;2023-08-01T23:25:21;4.47;;;2.67;;
56999;SDS011;42891;50.006;21.964;2023-08-01T23:29:22;4.53;;;2.80;;
56999;SDS011;42891;50.006;21.964;2023-08-01T23:33:22;5.50;;;2.80;;
56999;SDS011;42891;50.006;21.964;2023-08-01T23:37:23;4.57;;;2.70;;
